TimeCDT,TemperatureF,Dew PointF,Humidity,Sea Level PressureIn,VisibilityMPH,Wind Direction,Wind SpeedMPH,Gust SpeedMPH,PrecipitationIn,Events,Conditions,WindDirDegrees,DateUTC
12:15 AM,73.4,68.0,83,30.11,10.0,Calm,Calm,-,N/A,,Clear,0,2013-08-21 05:15:00
12:35 AM,73.4,68.0,83,30.10,10.0,Calm,Calm,-,N/A,,Clear,0,2013-08-21 05:35:00
12:55 AM,71.6,68.0,88,30.10,10.0,Calm,Calm,-,N/A,,Clear,0,2013-08-21 05:55:00
1:15 AM,71.6,69.8,94,30.10,3.0,Calm,Calm,-,N/A,,Clear,0,2013-08-21 06:15:00
1:35 AM,71.6,69.8,94,30.10,10.0,Calm,Calm,-,N/A,,Clear,0,2013-08-21 06:35:00
1:55 AM,71.6,69.8,94,30.10,10.0,Calm,Calm,-,N/A,,Clear,0,2013-08-21 06:55:00
2:15 AM,71.6,69.8,94,30.10,10.0,Calm,Calm,-,N/A,,Clear,0,2013-08-21 07:15:00
2:35 AM,71.6,69.8,94,30.10,10.0,Calm,Calm,-,N/A,,Clear,0,2013-08-21 07:35:00
2:55 AM,71.6,68.0,88,30.10,10.0,Calm,Calm,-,N/A,,Clear,0,2013-08-21 07:55:00
3:15 AM,69.8,68.0,94,30.10,10.0,Calm,Calm,-,N/A,,Clear,0,2013-08-21 08:15:00
3:35 AM,68.0,68.0,100,30.11,7.0,Calm,Calm,-,N/A,,Partly Cloudy,0,2013-08-21 08:35:00
3:55 AM,68.0,68.0,100,30.11,9.0,Calm,Calm,-,N/A,,Partly Cloudy,0,2013-08-21 08:55:00
4:15 AM,69.8,68.0,94,30.11,10.0,Calm,Calm,-,N/A,,Scattered Clouds,0,2013-08-21 09:15:00
4:35 AM,71.6,69.8,94,30.11,9.0,Calm,Calm,-,N/A,,Mostly Cloudy,0,2013-08-21 09:35:00
4:55 AM,71.6,69.8,94,30.12,3.0,Calm,Calm,-,N/A,,Mostly Cloudy,0,2013-08-21 09:55:00
5:15 AM,71.6,69.8,94,30.12,9.0,Calm,Calm,-,N/A,,Mostly Cloudy,0,2013-08-21 10:15:00
5:35 AM,71.6,69.8,94,30.12,9.0,Calm,Calm,-,N/A,,Mostly Cloudy,0,2013-08-21 10:35:00
5:55 AM,71.6,71.6,100,30.13,9.0,Calm,Calm,-,N/A,,Scattered Clouds,0,2013-08-21 10:55:00
6:15 AM,71.6,69.8,94,30.13,8.0,Calm,Calm,-,N/A,,Mostly Cloudy,0,2013-08-21 11:15:00
6:35 AM,73.4,71.6,94,30.14,7.0,Calm,Calm,-,N/A,,Mostly Cloudy,0,2013-08-21 11:35:00
6:55 AM,73.4,71.6,94,30.14,7.0,Calm,Calm,-,N/A,,Mostly Cloudy,0,2013-08-21 11:55:00
7:15 AM,73.4,69.8,88,30.15,8.0,Calm,Calm,-,N/A,,Partly Cloudy,0,2013-08-21 12:15:00
7:35 AM,73.4,69.8,88,30.15,8.0,Calm,Calm,-,N/A,,Clear,0,2013-08-21 12:35:00
7:55 AM,73.4,69.8,88,30.16,9.0,Calm,Calm,-,N/A,,Clear,0,2013-08-21 12:55:00
8:15 AM,73.4,69.8,88,30.16,9.0,Calm,Calm,-,N/A,,Scattered Clouds,0,2013-08-21 13:15:00
8:35 AM,75.2,69.8,83,30.16,10.0,Calm,Calm,-,N/A,,Scattered Clouds,0,2013-08-21 13:35:00
8:55 AM,75.2,71.6,89,30.17,10.0,Calm,Calm,-,N/A,,Mostly Cloudy,0,2013-08-21 13:55:00
9:15 AM,75.2,71.6,89,30.17,10.0,Calm,Calm,-,N/A,,Mostly Cloudy,0,2013-08-21 14:15:00
9:35 AM,77.0,71.6,83,30.18,9.0,Calm,Calm,-,N/A,,Scattered Clouds,0,2013-08-21 14:35:00
9:55 AM,78.8,71.6,78,30.18,9.0,Calm,Calm,-,N/A,,Partly Cloudy,0,2013-08-21 14:55:00
10:15 AM,80.6,71.6,74,30.18,9.0,Calm,Calm,-,N/A,,Partly Cloudy,0,2013-08-21 15:15:00
10:35 AM,82.4,71.6,70,30.18,10.0,Calm,Calm,-,N/A,,Clear,0,2013-08-21 15:35:00
10:55 AM,82.4,71.6,70,30.17,10.0,Calm,Calm,-,N/A,,Clear,0,2013-08-21 15:55:00
11:15 AM,84.2,69.8,62,30.17,10.0,Calm,Calm,-,N/A,,Clear,0,2013-08-21 16:15:00
11:35 AM,84.2,69.8,62,30.17,10.0,Calm,Calm,-,N/A,,Clear,0,2013-08-21 16:35:00
11:55 AM,86.0,69.8,58,30.16,10.0,Calm,Calm,-,N/A,,Scattered Clouds,0,2013-08-21 16:55:00
12:15 PM,84.2,69.8,62,30.15,10.0,Calm,Calm,-,N/A,,Mostly Cloudy,0,2013-08-21 17:15:00
12:35 PM,84.2,71.6,66,30.14,8.0,Calm,Calm,-,N/A,Rain,Light Rain,0,2013-08-21 17:35:00
12:55 PM,80.6,73.4,79,30.15,1.2,West,5.8,-,0.12,Rain,Rain,280,2013-08-21 17:55:00
1:15 PM,73.4,68.0,83,30.14,1.2,North,9.2,-,0.20,Rain,Rain,10,2013-08-21 18:15:00
1:35 PM,75.2,71.6,89,30.15,0.5,NNE,6.9,-,0.78,Rain-Thunderstorm,Heavy Rain,30,2013-08-21 18:35:00
1:55 PM,75.2,71.6,89,30.14,4.0,ENE,4.6,-,1.07,Rain-Thunderstorm,Light Thunderstorms and Rain,70,2013-08-21 18:55:00
2:15 PM,77.0,73.4,89,30.13,10.0,East,3.5,-,N/A,,Mostly Cloudy,90,2013-08-21 19:15:00
2:35 PM,82.4,73.4,74,30.13,10.0,ENE,6.9,-,N/A,,Scattered Clouds,60,2013-08-21 19:35:00
2:55 PM,80.6,73.4,79,30.12,10.0,East,4.6,-,N/A,,Scattered Clouds,90,2013-08-21 19:55:00
3:15 PM,80.6,73.4,79,30.12,10.0,ENE,3.5,-,N/A,,Partly Cloudy,60,2013-08-21 20:15:00
3:35 PM,80.6,75.2,84,30.12,10.0,Calm,Calm,-,N/A,Rain-Thunderstorm,Light Thunderstorms and Rain,0,2013-08-21 20:35:00
3:55 PM,80.6,75.2,84,30.12,5.0,WSW,10.4,-,N/A,Rain-Thunderstorm,Light Thunderstorms and Rain,250,2013-08-21 20:55:00
4:15 PM,73.4,71.6,94,30.12,5.0,West,6.9,-,N/A,Rain-Thunderstorm,Light Thunderstorms and Rain,260,2013-08-21 21:15:00
4:35 PM,73.4,69.8,88,30.11,3.0,Calm,Calm,-,0.02,Rain-Thunderstorm,Light Rain,0,2013-08-21 21:35:00
4:55 PM,75.2,73.4,94,30.10,9.0,Calm,Calm,-,0.03,Rain,Light Rain,0,2013-08-21 21:55:00
5:15 PM,77.0,73.4,89,30.09,10.0,Calm,Calm,-,N/A,,Clear,0,2013-08-21 22:15:00
5:35 PM,80.6,73.4,79,30.10,10.0,Calm,Calm,-,N/A,,Clear,0,2013-08-21 22:35:00
5:55 PM,77.0,73.4,89,30.09,10.0,Calm,Calm,-,N/A,,Partly Cloudy,0,2013-08-21 22:55:00
6:15 PM,77.0,75.2,94,30.09,10.0,Calm,Calm,-,N/A,,Clear,0,2013-08-21 23:15:00
6:35 PM,77.0,75.2,94,30.09,9.0,Calm,Calm,-,N/A,,Clear,0,2013-08-21 23:35:00
6:55 PM,78.8,75.2,89,30.09,10.0,Calm,Calm,-,N/A,,Clear,0,2013-08-21 23:55:00
7:15 PM,77.0,75.2,94,30.09,9.0,Calm,Calm,-,N/A,,Clear,0,2013-08-22 00:15:00
7:35 PM,77.0,75.2,94,30.09,7.0,Calm,Calm,-,N/A,,Clear,0,2013-08-22 00:35:00
7:55 PM,75.2,75.2,100,30.10,9.0,Calm,Calm,-,N/A,,Clear,0,2013-08-22 00:55:00
8:15 PM,75.2,73.4,94,30.11,7.0,Calm,Calm,-,N/A,,Clear,0,2013-08-22 01:15:00
8:35 PM,75.2,73.4,94,30.12,9.0,Calm,Calm,-,N/A,,Scattered Clouds,0,2013-08-22 01:35:00
8:55 PM,75.2,73.4,94,30.12,10.0,Calm,Calm,-,N/A,,Partly Cloudy,0,2013-08-22 01:55:00
9:15 PM,75.2,73.4,94,30.12,10.0,Calm,Calm,-,N/A,,Clear,0,2013-08-22 02:15:00
9:35 PM,75.2,73.4,94,30.13,10.0,Calm,Calm,-,N/A,,Clear,0,2013-08-22 02:35:00
9:55 PM,73.4,71.6,94,30.13,10.0,Calm,Calm,-,N/A,,Clear,0,2013-08-22 02:55:00
10:15 PM,73.4,71.6,94,30.14,7.0,Calm,Calm,-,N/A,,Clear,0,2013-08-22 03:15:00
10:35 PM,73.4,71.6,94,30.14,9.0,Calm,Calm,-,N/A,,Clear,0,2013-08-22 03:35:00
10:55 PM,73.4,71.6,94,30.14,7.0,Calm,Calm,-,N/A,,Partly Cloudy,0,2013-08-22 03:55:00
11:15 PM,73.4,71.6,94,30.14,7.0,Calm,Calm,-,N/A,,Clear,0,2013-08-22 04:15:00
11:35 PM,71.6,71.6,100,30.14,10.0,Calm,Calm,-,N/A,,Clear,0,2013-08-22 04:35:00
11:55 PM,71.6,71.6,100,30.14,9.0,Calm,Calm,-,N/A,,Clear,0,2013-08-22 04:55:00